Time;durP1;ratioP1;P1;durP2;ratioP2;P2;SDS_P1;SDS_P2;PMS_P1;PMS_P2;Temp;Humidity;BMP_temperature;BMP_pressure;BME280_temperature;BME280_humidity;BME280_pressure;Samples;Min_cycle;Max_cycle;Signal;HPM_P1;HPM_P2
2024/04/14 00:02:07;;;;;;;;;;;;;;;15.21;100.00;95533.06;11404316;26;20450;-72
2024/04/14 00:07:11;;;;;;;;;;;;;;;15.17;100.00;95529.31;11370152;26;19928;-71
2024/04/14 00:12:11;;;;;;;;;;;;;;;15.07;100.00;95529.41;11402459;26;19984;-71
2024/04/14 00:17:11;;;;;;;;;;;;;;;14.95;100.00;95526.25;11402114;26;19961;-71
2024/04/14 00:22:11;;;;;;;;;;;;;;;14.96;100.00;95517.00;11401077;26;19936;-72
2024/04/14 00:27:12;;;;;;;;;;;;;;;14.88;100.00;95509.50;11402478;26;20235;-72
2024/04/14 00:32:12;;;;;;;;;;;;;;;14.86;100.00;95517.88;11385816;26;19936;-72
2024/04/14 00:37:12;;;;;;;;;;;;;;;14.79;100.00;95515.53;11365560;26;19927;-72
2024/04/14 00:42:12;;;;;;;;;;;;;;;14.68;100.00;95513.97;11402057;26;19927;-71
2024/04/14 00:47:13;;;;;;;;;;;;;;;14.71;100.00;95508.00;11400817;26;19946;-71
2024/04/14 00:52:13;;;;;;;;;;;;;;;14.70;100.00;95500.94;11384084;26;19952;-73
2024/04/14 00:57:14;;;;;;;;;;;;;;;14.66;100.00;95508.00;11399237;26;20371;-73
2024/04/14 01:02:14;;;;;;;;;;;;;;;14.56;100.00;95505.34;11401713;26;19995;-73
2024/04/14 01:07:14;;;;;;;;;;;;;;;14.69;100.00;95513.69;11370258;26;20335;-72
2024/04/14 01:12:15;;;;;;;;;;;;;;;14.70;100.00;95509.06;11398096;26;19993;-72
2024/04/14 01:17:15;;;;;;;;;;;;;;;14.73;100.00;95505.78;11398333;26;19931;-74
2024/04/14 01:22:15;;;;;;;;;;;;;;;14.60;100.00;95506.41;11398784;26;19951;-73
2024/04/14 01:27:15;;;;;;;;;;;;;;;14.50;100.00;95510.78;11395153;26;19960;-74
2024/04/14 01:32:16;;;;;;;;;;;;;;;14.50;100.00;95509.97;11366846;26;19993;-68
2024/04/14 01:37:16;;;;;;;;;;;;;;;14.42;100.00;95513.25;11355529;26;19935;-68
2024/04/14 01:42:16;;;;;;;;;;;;;;;14.13;100.00;95520.13;11400746;26;20232;-68
2024/04/14 01:47:16;;;;;;;;;;;;;;;14.05;100.00;95522.59;11370072;26;19996;-68
2024/04/14 01:52:17;;;;;;;;;;;;;;;13.89;100.00;95511.84;11401312;26;19955;-68
2024/04/14 01:57:17;;;;;;;;;;;;;;;13.78;100.00;95519.16;11401469;26;19947;-70
2024/04/14 02:02:17;;;;;;;;;;;;;;;13.70;100.00;95516.22;11400909;26;20740;-70
2024/04/14 02:07:18;;;;;;;;;;;;;;;13.58;100.00;95517.31;11401537;26;19942;-67
2024/04/14 02:12:18;;;;;;;;;;;;;;;13.50;100.00;95523.25;11401134;26;20394;-68
2024/04/14 02:17:18;;;;;;;;;;;;;;;13.37;100.00;95531.91;11401496;26;19939;-68
2024/04/14 02:22:18;;;;;;;;;;;;;;;13.21;100.00;95534.56;11401175;26;20742;-67
2024/04/14 02:27:19;;;;;;;;;;;;;;;13.03;100.00;95530.53;11402504;26;20003;-68
2024/04/14 02:32:19;;;;;;;;;;;;;;;12.88;100.00;95533.19;11400912;26;20304;-68
2024/04/14 02:37:20;;;;;;;;;;;;;;;12.64;100.00;95529.13;11403007;26;19927;-67
2024/04/14 02:42:20;;;;;;;;;;;;;;;12.60;100.00;95522.66;11367405;26;20325;-68
2024/04/14 02:47:20;;;;;;;;;;;;;;;12.39;100.00;95521.78;11408060;26;19927;-68
2024/04/14 02:52:20;;;;;;;;;;;;;;;12.24;100.00;95517.16;11408940;26;20728;-68
2024/04/14 02:57:21;;;;;;;;;;;;;;;12.01;100.00;95513.00;11408441;26;19942;-68
2024/04/14 03:02:21;;;;;;;;;;;;;;;12.11;100.00;95528.41;11375927;26;20668;-68
2024/04/14 03:07:21;;;;;;;;;;;;;;;12.14;100.00;95526.00;11407715;26;19928;-68
2024/04/14 03:12:21;;;;;;;;;;;;;;;12.12;100.00;95532.72;11407186;26;20000;-69
2024/04/14 03:17:25;;;;;;;;;;;;;;;12.18;100.00;95539.78;11407307;26;19937;-69
2024/04/14 03:22:26;;;;;;;;;;;;;;;12.14;100.00;95533.28;11408136;26;20305;-69
2024/04/14 03:27:26;;;;;;;;;;;;;;;11.96;100.00;95540.75;11407346;26;19927;-69
2024/04/14 03:32:26;;;;;;;;;;;;;;;11.87;100.00;95536.09;11375220;26;19943;-69
2024/04/14 03:37:26;;;;;;;;;;;;;;;11.88;100.00;95538.50;11406854;26;20403;-69
2024/04/14 03:42:26;;;;;;;;;;;;;;;11.95;100.00;95538.31;11407059;26;19939;-69
2024/04/14 03:47:27;;;;;;;;;;;;;;;11.83;100.00;95551.13;11405688;26;19939;-68
2024/04/14 03:52:27;;;;;;;;;;;;;;;11.83;100.00;95551.13;11406370;26;20384;-68
2024/04/14 03:57:27;;;;;;;;;;;;;;;11.82;100.00;95550.34;11406253;26;20013;-68
2024/04/14 04:02:27;;;;;;;;;;;;;;;11.73;100.00;95543.81;11406984;26;19928;-69
2024/04/14 04:07:28;;;;;;;;;;;;;;;11.64;100.00;95540.81;11406336;26;19994;-68
2024/04/14 04:12:28;;;;;;;;;;;;;;;11.45;100.00;95538.50;11405637;26;19975;-69
2024/04/14 04:17:28;;;;;;;;;;;;;;;11.58;100.00;95549.91;11405621;26;20354;-68
2024/04/14 04:22:28;;;;;;;;;;;;;;;11.56;100.00;95547.47;11406350;26;19995;-68
2024/04/14 04:27:29;;;;;;;;;;;;;;;11.68;100.00;95555.38;11405932;26;19939;-68
2024/04/14 04:32:29;;;;;;;;;;;;;;;11.77;100.00;95559.19;11405300;26;19935;-68
2024/04/14 04:37:29;;;;;;;;;;;;;;;11.91;100.00;95566.81;11404812;26;19927;-68
2024/04/14 04:42:29;;;;;;;;;;;;;;;12.04;100.00;95569.09;11370442;26;19932;-69
2024/04/14 04:47:30;;;;;;;;;;;;;;;12.18;100.00;95568.59;11405083;26;19935;-69
2024/04/14 04:52:30;;;;;;;;;;;;;;;12.27;100.00;95573.22;11404228;26;19931;-68
2024/04/14 04:57:30;;;;;;;;;;;;;;;12.41;100.00;95573.53;11404525;26;20356;-68
2024/04/14 05:02:30;;;;;;;;;;;;;;;12.55;100.00;95578.47;11404893;26;19928;-67
2024/04/14 05:07:33;;;;;;;;;;;;;;;12.96;100.00;95575.84;11401644;26;19927;-68
2024/04/14 05:12:34;;;;;;;;;;;;;;;13.35;100.00;95583.47;11388016;26;20444;-68
2024/04/14 05:17:34;;;;;;;;;;;;;;;13.74;100.00;95580.22;11402049;26;19927;-69
2024/04/14 05:22:34;;;;;;;;;;;;;;;14.19;100.00;95581.22;11402062;26;19935;-69
2024/04/14 05:27:34;;;;;;;;;;;;;;;14.69;100.00;95583.19;11390587;26;19934;-68
2024/04/14 05:32:34;;;;;;;;;;;;;;;15.04;100.00;95582.22;11403582;26;19927;-69
2024/04/14 05:37:35;;;;;;;;;;;;;;;15.52;100.00;95578.88;11401402;26;19935;-69
2024/04/14 05:42:35;;;;;;;;;;;;;;;15.99;100.00;95581.19;11402340;26;20039;-69
2024/04/14 05:47:35;;;;;;;;;;;;;;;16.38;100.00;95588.38;11396912;26;19995;-69
2024/04/14 05:52:38;;;;;;;;;;;;;;;16.89;100.00;95574.19;11395603;26;20247;-69
2024/04/14 05:57:38;;;;;;;;;;;;;;;17.60;100.00;95582.38;11398337;26;20279;-72
2024/04/14 06:02:38;;;;;;;;;;;;;;;18.82;95.78;95567.91;11402829;26;19958;-68
2024/04/14 06:07:38;;;;;;;;;;;;;;;20.13;78.54;95563.47;11397517;26;20035;-72
2024/04/14 06:12:38;;;;;;;;;;;;;;;20.99;69.55;95566.81;11396154;25;19927;-67
2024/04/14 06:17:39;;;;;;;;;;;;;;;22.01;62.98;95562.75;11398981;26;20445;-79
2024/04/14 06:22:39;;;;;;;;;;;;;;;22.29;62.64;95565.06;11368216;26;20021;-79
2024/04/14 06:27:39;;;;;;;;;;;;;;;21.94;63.87;95564.38;11398616;26;20686;-78
2024/04/14 06:32:40;;;;;;;;;;;;;;;21.58;63.45;95569.09;11347851;26;19999;-74
2024/04/14 06:37:40;;;;;;;;;;;;;;;20.84;69.38;95570.78;11397741;26;19936;-78
2024/04/14 06:42:40;;;;;;;;;;;;;;;20.58;80.58;95574.25;11398541;26;20415;-71
2024/04/14 06:47:41;;;;;;;;;;;;;;;21.43;75.05;95564.09;11395389;26;19928;-76
2024/04/14 06:52:41;;;;;;;;;;;;;;;22.08;67.81;95555.97;11395382;26;19935;-75
2024/04/14 06:57:42;;;;;;;;;;;;;;;21.69;70.04;95558.63;11397335;26;20355;-79
2024/04/14 07:02:43;;;;;;;;;;;;;;;21.82;70.46;95557.66;11355592;26;19928;-73
2024/04/14 07:07:43;;;;;;;;;;;;;;;21.83;68.83;95561.19;11396847;26;20326;-77
2024/04/14 07:12:43;;;;;;;;;;;;;;;22.12;69.08;95554.19;11383726;26;20338;-75
2024/04/14 07:17:43;;;;;;;;;;;;;;;22.89;66.94;95551.44;11396578;26;19928;-74
2024/04/14 07:22:44;;;;;;;;;;;;;;;24.89;52.93;95545.13;11397730;26;19928;-73
2024/04/14 07:27:46;;;;;;;;;;;;;;;26.90;42.28;95537.16;11396097;26;20351;-74
2024/04/14 07:32:46;;;;;;;;;;;;;;;28.27;40.50;95538.00;11402727;26;19995;-73
2024/04/14 07:37:47;;;;;;;;;;;;;;;29.47;36.15;95526.75;11405566;26;19995;-73
2024/04/14 07:42:47;;;;;;;;;;;;;;;30.29;35.65;95526.09;11405385;26;19938;-74
2024/04/14 07:47:47;;;;;;;;;;;;;;;30.91;34.18;95510.75;11405416;26;19928;-73
2024/04/14 07:52:47;;;;;;;;;;;;;;;31.85;33.17;95507.28;11401944;26;20357;-74
2024/04/14 07:57:48;;;;;;;;;;;;;;;32.84;29.97;95509.00;11405344;26;19927;-74
2024/04/14 08:02:48;;;;;;;;;;;;;;;33.41;29.67;95499.75;11403180;26;19927;-74
2024/04/14 08:07:48;;;;;;;;;;;;;;;33.45;30.27;95505.28;11404431;26;19928;-74
2024/04/14 08:12:48;;;;;;;;;;;;;;;33.68;28.60;95504.81;11405854;26;19927;-74
2024/04/14 08:17:49;;;;;;;;;;;;;;;33.80;27.68;95500.78;11404741;26;20764;-74
2024/04/14 08:22:49;;;;;;;;;;;;;;;33.94;28.38;95505.50;11404556;26;20330;-73
2024/04/14 08:27:49;;;;;;;;;;;;;;;34.62;27.20;95504.25;11404545;26;19930;-74
2024/04/14 08:32:50;;;;;;;;;;;;;;;35.58;26.63;95496.13;11403636;26;19956;-74
2024/04/14 08:37:50;;;;;;;;;;;;;;;35.62;26.46;95485.69;11403787;26;20127;-74
2024/04/14 08:42:51;;;;;;;;;;;;;;;36.05;24.53;95475.97;11402558;26;20387;-74
2024/04/14 08:47:52;;;;;;;;;;;;;;;35.65;26.63;95484.84;11403472;26;19932;-74
2024/04/14 08:52:52;;;;;;;;;;;;;;;32.88;27.96;95488.31;11404317;26;20231;-74
2024/04/14 08:57:53;;;;;;;;;;;;;;;31.56;30.74;95488.91;11403624;26;19938;-73
2024/04/14 09:02:53;;;;;;;;;;;;;;;33.94;28.02;95480.41;11402315;26;20263;-73
2024/04/14 09:07:56;;;;;;;;;;;;;;;35.41;25.05;95478.38;11370922;26;20017;-75
2024/04/14 09:12:57;;;;;;;;;;;;;;;35.44;26.52;95471.16;11403013;26;20355;-72
2024/04/14 09:17:57;;;;;;;;;;;;;;;32.34;28.77;95470.84;11402719;26;19985;-73
2024/04/14 09:22:58;;;;;;;;;;;;;;;28.26;34.37;95477.56;11402345;26;19928;-73
2024/04/14 09:28:10;;;;;;;;;;;;;;;28.84;35.38;95467.38;11401760;26;19934;-73
2024/04/14 09:33:11;;;;;;;;;;;;;;;29.27;34.63;95462.44;11402895;26;19936;-74
2024/04/14 09:38:14;;;;;;;;;;;;;;;28.95;35.48;95455.28;11402250;26;20339;-73
2024/04/14 09:43:15;;;;;;;;;;;;;;;27.76;34.56;95458.91;11402051;26;19934;-72
2024/04/14 09:48:16;;;;;;;;;;;;;;;29.44;34.72;95450.81;11401692;26;20328;-73
2024/04/14 09:53:17;;;;;;;;;;;;;;;32.06;29.90;95432.66;11401880;26;19927;-73
2024/04/14 09:58:17;;;;;;;;;;;;;;;34.33;27.78;95434.72;11368065;26;19927;-73
2024/04/14 10:03:19;;;;;;;;;;;;;;;37.40;24.94;95423.63;11401025;26;20334;-72
2024/04/14 10:08:20;;;;;;;;;;;;;;;36.44;22.38;95415.78;11400973;26;20243;-73
2024/04/14 10:13:20;;;;;;;;;;;;;;;35.47;23.83;95406.03;11401170;26;19927;-73
2024/04/14 10:18:20;;;;;;;;;;;;;;;36.49;23.27;95398.50;11400484;26;19927;-73
2024/04/14 10:23:20;;;;;;;;;;;;;;;36.79;21.49;95391.19;11400817;26;20445;-73
2024/04/14 10:28:21;;;;;;;;;;;;;;;38.94;20.62;95378.28;11367120;26;20367;-73
2024/04/14 10:33:22;;;;;;;;;;;;;;;38.72;21.00;95375.28;11400410;26;20394;-73
2024/04/14 10:38:22;;;;;;;;;;;;;;;40.32;20.26;95358.88;11367348;26;19927;-73
2024/04/14 10:43:24;;;;;;;;;;;;;;;41.06;18.40;95353.13;11398992;26;19931;-73
2024/04/14 10:48:24;;;;;;;;;;;;;;;41.17;18.12;95347.84;11399439;26;20795;-73
2024/04/14 10:53:24;;;;;;;;;;;;;;;42.35;17.64;95342.44;11398237;26;20021;-73
2024/04/14 10:58:29;;;;;;;;;;;;;;;40.91;18.88;95331.03;11398857;26;19927;-73
2024/04/14 11:03:30;;;;;;;;;;;;;;;41.84;17.68;95326.75;11399273;26;19939;-74
2024/04/14 11:08:30;;;;;;;;;;;;;;;41.80;17.63;95331.75;11406435;26;19935;-73
2024/04/14 11:13:31;;;;;;;;;;;;;;;42.73;16.61;95317.03;11407154;26;20248;-74
2024/04/14 11:18:32;;;;;;;;;;;;;;;40.75;17.81;95317.13;11405855;26;19928;-69
2024/04/14 11:23:33;;;;;;;;;;;;;;;36.85;19.85;95313.03;11408488;26;19927;-74
2024/04/14 11:28:33;;;;;;;;;;;;;;;33.85;23.65;95311.53;11405885;26;19934;-75
2024/04/14 11:33:33;;;;;;;;;;;;;;;31.58;24.48;95309.53;11406128;26;20315;-74
2024/04/14 11:38:35;;;;;;;;;;;;;;;29.37;26.21;95308.69;11373874;26;19939;-75
2024/04/14 11:43:35;;;;;;;;;;;;;;;28.84;29.43;95304.16;11405609;26;19927;-74
2024/04/14 11:48:36;;;;;;;;;;;;;;;28.63;28.19;95297.19;11405802;26;19928;-74
2024/04/14 11:53:37;;;;;;;;;;;;;;;28.44;26.93;95279.56;11406530;26;20008;-74
2024/04/14 11:58:37;;;;;;;;;;;;;;;28.40;27.66;95275.94;11405305;26;20354;-75
2024/04/14 12:03:37;;;;;;;;;;;;;;;28.30;29.11;95269.13;11371881;26;20818;-75
2024/04/14 12:08:38;;;;;;;;;;;;;;;27.92;27.86;95259.88;11405082;26;19935;-75
2024/04/14 12:13:38;;;;;;;;;;;;;;;27.91;26.29;95254.75;11372309;26;19928;-75
2024/04/14 12:18:38;;;;;;;;;;;;;;;27.69;27.98;95243.38;11371186;26;20248;-75
2024/04/14 12:23:38;;;;;;;;;;;;;;;27.77;28.26;95234.00;11371937;26;19927;-76
2024/04/14 12:28:38;;;;;;;;;;;;;;;27.60;29.30;95229.00;11404719;26;19958;-76
2024/04/14 12:33:40;;;;;;;;;;;;;;;27.39;28.14;95216.50;11403828;26;19927;-75
2024/04/14 12:38:40;;;;;;;;;;;;;;;27.48;27.08;95207.94;11400489;26;19928;-76
2024/04/14 12:43:40;;;;;;;;;;;;;;;27.25;28.71;95202.41;11393274;26;19934;-76
2024/04/14 12:48:43;;;;;;;;;;;;;;;27.30;28.48;95199.34;11402962;26;20243;-76
2024/04/14 12:53:43;;;;;;;;;;;;;;;27.04;29.66;95203.63;11404066;26;19934;-75
2024/04/14 12:58:43;;;;;;;;;;;;;;;26.93;28.94;95188.88;11403234;26;19934;-77
2024/04/14 13:03:44;;;;;;;;;;;;;;;26.98;29.76;95176.75;11403698;26;19927;-77
2024/04/14 13:08:44;;;;;;;;;;;;;;;26.97;31.39;95177.91;11403535;26;19939;-77
2024/04/14 13:13:44;;;;;;;;;;;;;;;26.71;31.47;95171.16;11369539;26;20254;-76
2024/04/14 13:18:45;;;;;;;;;;;;;;;26.66;30.70;95163.97;11402218;26;19933;-76
2024/04/14 13:23:47;;;;;;;;;;;;;;;26.57;32.70;95164.19;11400800;26;20504;-76
2024/04/14 13:28:47;;;;;;;;;;;;;;;26.56;31.30;95157.09;11402115;26;19927;-78
2024/04/14 13:33:48;;;;;;;;;;;;;;;26.41;30.86;95147.75;11402265;26;19927;-77
2024/04/14 13:38:50;;;;;;;;;;;;;;;26.42;31.70;95146.59;11370582;26;19939;-76
2024/04/14 13:43:55;;;;;;;;;;;;;;;26.40;29.92;95157.22;11401396;26;19996;-76
2024/04/14 13:48:56;;;;;;;;;;;;;;;26.35;30.41;95146.47;11401936;26;20398;-77
2024/04/14 13:53:56;;;;;;;;;;;;;;;26.34;31.55;95152.34;11401068;26;20016;-76
2024/04/14 13:58:56;;;;;;;;;;;;;;;26.29;29.86;95136.91;11371357;26;20254;-77
2024/04/14 14:03:57;;;;;;;;;;;;;;;26.17;30.07;95137.06;11402182;26;19927;-78
2024/04/14 14:08:57;;;;;;;;;;;;;;;26.12;29.18;95129.88;11369288;26;19939;-77
2024/04/14 14:14:00;;;;;;;;;;;;;;;25.93;29.48;95133.44;11401217;26;19927;-76
2024/04/14 14:19:00;;;;;;;;;;;;;;;25.72;30.93;95131.03;11401248;26;19928;-76
2024/04/14 14:24:01;;;;;;;;;;;;;;;25.66;31.52;95129.72;11400325;26;19927;-76
2024/04/14 14:29:01;;;;;;;;;;;;;;;25.59;28.12;95124.84;11399676;26;20000;-76
2024/04/14 14:39:20;;;;;;;;;;;;;;;25.56;29.26;95128.31;11401156;26;19951;-77
2024/04/14 14:44:20;;;;;;;;;;;;;;;25.46;29.80;95112.38;11408924;26;19950;-77
2024/04/14 14:49:21;;;;;;;;;;;;;;;25.35;30.10;95110.19;11407590;26;19934;-77
2024/04/14 14:54:21;;;;;;;;;;;;;;;25.31;30.47;95106.53;11407109;26;20616;-77
2024/04/14 14:59:21;;;;;;;;;;;;;;;25.30;29.51;95102.19;11407475;26;19927;-77
2024/04/14 15:04:22;;;;;;;;;;;;;;;25.23;29.27;95094.56;11408345;26;19939;-78
2024/04/14 15:09:22;;;;;;;;;;;;;;;25.18;28.73;95094.84;11374779;26;20327;-77
2024/04/14 15:14:22;;;;;;;;;;;;;;;25.12;28.71;95084.47;11406679;26;19935;-78
2024/04/14 15:19:22;;;;;;;;;;;;;;;25.00;27.52;95094.44;11406571;26;19927;-78
2024/04/14 15:24:23;;;;;;;;;;;;;;;24.94;28.08;95090.38;11404769;26;19928;-76
2024/04/14 15:29:25;;;;;;;;;;;;;;;24.88;28.57;95089.84;11407557;26;19928;-76
2024/04/14 15:34:25;;;;;;;;;;;;;;;24.93;29.21;95088.75;11404882;26;19967;-77
2024/04/14 15:39:25;;;;;;;;;;;;;;;24.81;29.00;95086.94;11403837;26;20252;-76
2024/04/14 15:44:25;;;;;;;;;;;;;;;24.78;30.25;95092.34;11405986;26;19927;-76
2024/04/14 15:49:26;;;;;;;;;;;;;;;24.65;30.57;95097.91;11371318;26;19935;-76
2024/04/14 15:54:26;;;;;;;;;;;;;;;24.53;29.57;95090.53;11406800;26;19928;-77
2024/04/14 15:59:26;;;;;;;;;;;;;;;24.52;30.54;95097.19;11407986;26;20255;-77
2024/04/14 16:04:26;;;;;;;;;;;;;;;24.49;29.62;95094.34;11406610;26;20733;-77
2024/04/14 16:09:26;;;;;;;;;;;;;;;24.39;28.83;95101.97;11372732;26;19938;-76
2024/04/14 16:14:27;;;;;;;;;;;;;;;24.33;29.62;95106.09;11405571;26;19928;-76
2024/04/14 16:19:27;;;;;;;;;;;;;;;24.21;29.49;95104.25;11406317;26;19999;-77
2024/04/14 16:24:27;;;;;;;;;;;;;;;24.18;28.49;95112.38;11404882;26;20385;-78
2024/04/14 16:29:27;;;;;;;;;;;;;;;24.01;29.57;95105.25;11405374;26;20470;-77
2024/04/14 16:34:28;;;;;;;;;;;;;;;23.94;30.23;95111.34;11405838;26;19935;-77
2024/04/14 16:39:29;;;;;;;;;;;;;;;23.78;31.57;95108.53;11376155;26;20617;-77
2024/04/14 16:44:29;;;;;;;;;;;;;;;23.66;32.37;95112.09;11404021;26;20276;-78
2024/04/14 16:49:29;;;;;;;;;;;;;;;23.46;32.90;95110.34;11403173;26;19927;-78
2024/04/14 16:54:30;;;;;;;;;;;;;;;23.29;34.19;95112.22;11402936;26;20704;-77
2024/04/14 16:59:30;;;;;;;;;;;;;;;23.17;34.57;95114.97;11398546;26;19928;-77
2024/04/14 17:04:30;;;;;;;;;;;;;;;22.99;35.87;95120.66;11402101;26;19960;-79
2024/04/14 17:09:31;;;;;;;;;;;;;;;22.78;36.35;95128.19;11372065;26;19927;-76
2024/04/14 17:14:31;;;;;;;;;;;;;;;22.51;37.09;95135.94;11380707;26;19928;-75
2024/04/14 17:19:31;;;;;;;;;;;;;;;22.28;36.57;95133.56;11374337;26;20259;-76
2024/04/14 17:24:32;;;;;;;;;;;;;;;22.12;37.73;95135.34;11340096;26;19938;-74
2024/04/14 17:29:32;;;;;;;;;;;;;;;21.97;37.82;95134.03;11336427;26;19927;-75
2024/04/14 17:34:32;;;;;;;;;;;;;;;21.95;38.91;95142.59;11367673;26;19935;-75
2024/04/14 17:39:32;;;;;;;;;;;;;;;21.74;40.68;95153.56;11337264;26;20236;-73
2024/04/14 17:44:33;;;;;;;;;;;;;;;21.60;41.26;95158.47;11368883;26;19935;-74
2024/04/14 17:49:33;;;;;;;;;;;;;;;21.51;42.24;95158.53;11329173;26;19927;-77
2024/04/14 17:54:34;;;;;;;;;;;;;;;21.28;43.90;95158.84;11345327;26;19938;-81
2024/04/14 17:59:34;;;;;;;;;;;;;;;21.06;43.76;95167.34;11337735;26;20188;-80
2024/04/14 18:04:35;;;;;;;;;;;;;;;20.86;44.30;95164.22;11388697;26;20419;-79
2024/04/14 18:09:35;;;;;;;;;;;;;;;20.77;45.12;95174.38;11385585;26;20331;-82
2024/04/14 18:14:35;;;;;;;;;;;;;;;20.76;46.20;95186.41;11388274;26;19927;-82
2024/04/14 18:19:36;;;;;;;;;;;;;;;20.59;48.25;95187.25;11352125;26;19936;-83
2024/04/14 18:24:36;;;;;;;;;;;;;;;20.58;48.13;95191.09;11393001;26;19928;-83
2024/04/14 18:29:36;;;;;;;;;;;;;;;20.61;47.74;95195.91;11394736;26;19935;-84
2024/04/14 18:34:36;;;;;;;;;;;;;;;20.60;47.84;95202.50;11345309;26;20269;-75
2024/04/14 18:39:37;;;;;;;;;;;;;;;20.58;48.40;95202.03;11368233;26;19935;-77
2024/04/14 18:44:37;;;;;;;;;;;;;;;20.51;48.09;95199.78;11371692;26;19928;-77
2024/04/14 18:49:37;;;;;;;;;;;;;;;20.35;45.83;95204.19;11372301;26;20255;-76
2024/04/14 18:54:37;;;;;;;;;;;;;;;20.39;46.81;95203.19;11357782;26;19928;-78
2024/04/14 18:59:38;;;;;;;;;;;;;;;20.28;44.88;95208.19;11385272;26;19951;-78
2024/04/14 19:04:38;;;;;;;;;;;;;;;20.28;44.66;95205.47;11390279;26;19938;-77
2024/04/14 19:09:39;;;;;;;;;;;;;;;20.22;45.25;95200.50;11394339;26;20045;-78
2024/04/14 19:14:39;;;;;;;;;;;;;;;20.19;47.42;95196.50;11396748;26;20339;-74
2024/04/14 19:19:40;;;;;;;;;;;;;;;20.06;47.50;95189.28;11359215;26;19939;-77
2024/04/14 19:24:40;;;;;;;;;;;;;;;19.97;46.57;95197.47;11399549;26;20000;-74
2024/04/14 19:29:40;;;;;;;;;;;;;;;19.84;47.96;95196.50;11372673;26;20243;-75
2024/04/14 19:34:41;;;;;;;;;;;;;;;19.56;49.15;95196.78;11405780;26;20001;-73
2024/04/14 19:39:44;;;;;;;;;;;;;;;19.58;49.87;95191.81;11405042;26;19927;-73
2024/04/14 19:44:44;;;;;;;;;;;;;;;19.38;49.70;95195.16;11406501;26;20414;-72
2024/04/14 19:49:45;;;;;;;;;;;;;;;19.17;47.65;95198.47;11405040;26;20007;-72
2024/04/14 19:54:51;;;;;;;;;;;;;;;19.21;52.93;95198.66;11401441;26;19935;-74
2024/04/14 19:59:53;;;;;;;;;;;;;;;19.05;51.61;95192.84;11371498;26;19934;-74
2024/04/14 20:04:53;;;;;;;;;;;;;;;18.83;51.44;95196.41;11372186;26;20726;-75
2024/04/14 20:09:53;;;;;;;;;;;;;;;18.70;58.01;95211.72;11370850;26;19946;-76
2024/04/14 20:14:53;;;;;;;;;;;;;;;18.38;55.38;95209.00;11390796;26;19950;-75
2024/04/14 20:19:53;;;;;;;;;;;;;;;18.27;52.82;95194.84;11369948;26;19934;-75
2024/04/14 20:24:54;;;;;;;;;;;;;;;18.12;52.00;95197.94;11371977;26;19995;-76
2024/04/14 20:29:54;;;;;;;;;;;;;;;17.97;50.96;95198.31;11405799;26;20254;-76
2024/04/14 20:34:54;;;;;;;;;;;;;;;17.89;50.93;95192.47;11373255;26;19934;-76
2024/04/14 20:39:54;;;;;;;;;;;;;;;17.79;48.76;95202.78;11389415;26;19928;-75
2024/04/14 20:44:55;;;;;;;;;;;;;;;17.59;47.96;95199.44;11406868;26;19927;-74
2024/04/14 20:49:55;;;;;;;;;;;;;;;17.47;49.04;95191.81;11372663;26;19927;-74
2024/04/14 20:54:55;;;;;;;;;;;;;;;17.35;46.75;95197.78;11406637;26;19975;-75
2024/04/14 20:59:55;;;;;;;;;;;;;;;17.25;47.61;95193.34;11402288;26;19955;-75
2024/04/14 21:04:56;;;;;;;;;;;;;;;17.07;45.96;95192.38;11403195;26;20283;-74
2024/04/14 21:09:56;;;;;;;;;;;;;;;16.96;45.27;95195.59;11368621;26;19934;-75
2024/04/14 21:14:56;;;;;;;;;;;;;;;16.79;45.33;95193.47;11367232;26;19955;-75
2024/04/14 21:19:57;;;;;;;;;;;;;;;16.73;45.63;95200.88;11403603;26;20614;-74
2024/04/14 21:24:57;;;;;;;;;;;;;;;16.66;46.98;95195.88;11403383;26;19939;-74
2024/04/14 21:29:57;;;;;;;;;;;;;;;16.53;43.03;95192.03;11372963;26;19934;-74
2024/04/14 21:34:58;;;;;;;;;;;;;;;16.62;43.17;95191.31;11367903;26;19927;-75
2024/04/14 21:39:58;;;;;;;;;;;;;;;16.65;42.90;95188.03;11370748;26;19927;-75
2024/04/14 21:44:58;;;;;;;;;;;;;;;16.66;43.14;95185.03;11404298;26;20250;-76
2024/04/14 21:49:58;;;;;;;;;;;;;;;16.56;43.89;95183.31;11403210;26;19999;-76
2024/04/14 21:54:59;;;;;;;;;;;;;;;16.45;44.38;95175.63;11369720;26;19934;-75
2024/04/14 21:59:59;;;;;;;;;;;;;;;16.35;44.42;95173.91;11404570;26;20046;-76
2024/04/14 22:05:00;;;;;;;;;;;;;;;16.21;44.19;95185.56;11360435;26;20346;-75
2024/04/14 22:10:00;;;;;;;;;;;;;;;16.06;46.01;95189.31;11403686;26;20437;-77
2024/04/14 22:15:00;;;;;;;;;;;;;;;15.71;48.52;95187.94;11371490;26;19935;-75
2024/04/14 22:20:00;;;;;;;;;;;;;;;15.39;51.31;95192.19;11370786;26;20457;-75
2024/04/14 22:25:01;;;;;;;;;;;;;;;15.35;51.66;95191.19;11403322;26;19928;-75
2024/04/14 22:30:01;;;;;;;;;;;;;;;15.25;52.58;95188.59;11371390;26;19928;-74
2024/04/14 22:35:01;;;;;;;;;;;;;;;15.14;52.40;95190.63;11403635;26;20268;-75
2024/04/14 22:40:01;;;;;;;;;;;;;;;15.14;51.95;95186.03;11365477;26;19931;-76
2024/04/14 22:45:02;;;;;;;;;;;;;;;15.09;51.96;95183.41;11398624;26;19927;-75
2024/04/14 22:50:03;;;;;;;;;;;;;;;15.10;52.49;95173.34;11402135;26;19927;-75
2024/04/14 22:55:04;;;;;;;;;;;;;;;15.01;50.94;95178.63;11401751;26;19927;-75
2024/04/14 23:00:07;;;;;;;;;;;;;;;14.91;50.25;95168.72;11403338;26;19935;-75
2024/04/14 23:05:07;;;;;;;;;;;;;;;14.85;49.46;95168.00;11406099;26;20233;-76
2024/04/14 23:10:08;;;;;;;;;;;;;;;14.77;49.97;95162.41;11407948;26;19927;-75
2024/04/14 23:15:08;;;;;;;;;;;;;;;14.65;49.54;95149.28;11408663;26;19998;-76
2024/04/14 23:20:09;;;;;;;;;;;;;;;14.70;50.11;95147.31;11372261;26;19927;-75
2024/04/14 23:25:09;;;;;;;;;;;;;;;14.62;49.29;95152.53;11381884;26;20258;-76
2024/04/14 23:30:09;;;;;;;;;;;;;;;14.59;50.06;95145.00;11408201;26;19927;-75
2024/04/14 23:35:09;;;;;;;;;;;;;;;14.61;56.38;95145.50;11406874;26;20308;-75
2024/04/14 23:40:10;;;;;;;;;;;;;;;14.48;60.24;95147.03;11406437;26;19938;-72
2024/04/14 23:45:10;;;;;;;;;;;;;;;14.41;60.15;95141.94;11408698;26;19955;-75
2024/04/14 23:50:10;;;;;;;;;;;;;;;14.26;61.03;95150.22;11406987;26;19928;-75
2024/04/14 23:55:10;;;;;;;;;;;;;;;13.95;59.09;95140.53;11407183;26;20367;-75
